BXL weather

Blue Lagoon Seaplane Base
Nanuya Lailai Island, Western, Fiji

Public forecast

Using degrees Celsius for public forecast. Weather courtesy of forecast.io.

Closest aviation weather report (METAR) to Blue Lagoon Seaplane Base

Closest report is Nadi International Airport, 49.0 nm (90.7 km) S. Retrieved 2020/03/30 10:00 UTC (52 minutes ago):

NFFN 301000Z 00000KT 9999 SCT027 BKN048 OVC110 26/25 Q1009 TEMPO 3000 TSRA

Closest aviation forecast (TAF) to Blue Lagoon Seaplane Base

Closest forecast is Nadi International Airport, 49.0 nm (90.7 km) S. Retrieved 2020/03/30 06:00 UTC (5 hours ago):

TAF NFFN 300516Z 3006/3106 08007KT 9999 -SHRA SCT020 SCT045 BKN100 TEMPO 3006/3012 5000 TSRA FEW017CB PROB40 TEMPO 3016/3024 3000 TSRA BKN015 FEW017CB TEMPO 3102/3106 3000 TSRA BKN015 FEW017CB